Terminal Aerodrome Forecast
Issued by NWS

Home | Current Version | Previous Version | Text Only | Print | Product List | Glossary On
Versions: 1 2 3 4 5 6 7 8 9 10 11 12 13 14 15
000
FTUS45 KREV 051603 AAC
TAFCXP
TAF AMD
KCXP 051603Z 0516/0612 33010KT P6SM VCSH BKN070 OVC140
      TEMPO 0516/0517 -TSRA OVC050CB
     FM051900 VRB04KT P6SM -SHRA VCTS BKN040CB OVC070
     FM060000 28008KT P6SM -RA BKN040 OVC100
     FM060600 VRB04KT P6SM VCSH BKN070 OVC100=

USA.gov is the U.S. government's official web portal to all federal, state and local government web resources and services.